createdAt,value
2022-11-23T00:01:15.659Z,1.33
2022-11-23T00:03:43.823Z,1.25
2022-11-23T00:06:13.555Z,1.85
2022-11-23T00:08:41.630Z,1.48
2022-11-23T00:11:09.775Z,1.27
2022-11-23T00:13:40.031Z,1.63
2022-11-23T00:16:08.911Z,1.27
2022-11-23T00:18:37.120Z,1.30
2022-11-23T00:21:09.002Z,1.55
2022-11-23T00:23:38.593Z,1.25
2022-11-23T00:26:07.592Z,1.60
2022-11-23T00:28:38.787Z,1.15
2022-11-23T00:31:07.485Z,1.27
2022-11-23T00:33:35.436Z,1.38
2022-11-23T00:36:05.847Z,1.15
2022-11-23T00:38:34.121Z,1.20
2022-11-23T00:41:06.111Z,1.50
2022-11-23T00:43:34.464Z,1.60
2022-11-23T00:46:08.032Z,1.30
2022-11-23T00:48:36.657Z,1.15
2022-11-23T00:51:05.978Z,1.05
2022-11-23T00:53:34.049Z,1.30
2022-11-23T00:56:03.642Z,1.00
2022-11-23T00:58:31.979Z,1.42
2022-11-23T01:01:04.350Z,1.20
2022-11-23T01:03:33.058Z,1.17
2022-11-23T01:06:08.381Z,1.27
2022-11-23T01:08:37.071Z,1.20
2022-11-23T01:11:08.031Z,1.40
2022-11-23T01:13:36.381Z,1.40
2022-11-23T01:16:04.462Z,1.35
2022-11-23T01:18:32.410Z,1.30
2022-11-23T01:21:02.753Z,1.27
2022-11-23T01:23:31.053Z,1.20
2022-11-23T01:26:00.192Z,1.27
2022-11-23T01:28:29.561Z,1.30
2022-11-23T01:31:03.692Z,1.13
2022-11-23T01:33:31.640Z,1.42
2022-11-23T01:35:59.548Z,1.27
2022-11-23T01:38:27.575Z,1.10
2022-11-23T01:40:55.540Z,1.02
2022-11-23T01:43:23.407Z,1.08
2022-11-23T01:46:00.225Z,1.55
2022-11-23T01:48:31.896Z,1.15
2022-11-23T01:51:02.315Z,1.25
2022-11-23T01:53:31.419Z,1.45
2022-11-23T01:56:02.879Z,1.48
2022-11-23T01:58:34.251Z,1.30
2022-11-23T02:01:03.922Z,1.25
2022-11-23T02:03:33.157Z,1.40
2022-11-23T02:06:04.299Z,1.40
2022-11-23T02:08:33.075Z,1.27
2022-11-23T02:11:01.276Z,1.27
2022-11-23T02:13:30.578Z,1.23
2022-11-23T02:16:00.207Z,1.30
2022-11-23T02:18:32.066Z,1.48
2022-11-23T02:21:01.853Z,1.52
2022-11-23T02:23:37.415Z,1.02
2022-11-23T02:26:10.625Z,1.30
2022-11-23T02:28:43.316Z,1.15
2022-11-23T02:31:11.555Z,1.25
2022-11-23T02:33:39.922Z,1.45
2022-11-23T02:36:37.492Z,0.93
2022-11-23T02:39:10.462Z,1.08
2022-11-23T02:41:43.493Z,1.33
2022-11-23T02:44:26.642Z,1.15
2022-11-23T02:46:55.085Z,1.20
2022-11-23T02:49:23.088Z,1.10
2022-11-23T02:51:51.070Z,1.15
2022-11-23T02:54:19.035Z,1.23
2022-11-23T02:56:48.715Z,1.00
2022-11-23T02:59:16.739Z,1.40
2022-11-23T03:01:44.679Z,1.50
2022-11-23T03:04:12.653Z,1.23
2022-11-23T03:06:40.655Z,1.10
2022-11-23T03:09:08.863Z,1.10
2022-11-23T03:11:37.109Z,1.10
2022-11-23T03:14:06.664Z,1.27
2022-11-23T03:16:34.605Z,1.58
2022-11-23T03:19:03.041Z,1.35
2022-11-23T03:21:31.016Z,1.40
2022-11-23T03:23:59.294Z,1.25
2022-11-23T03:26:27.203Z,1.20
2022-11-23T03:28:55.364Z,1.10
2022-11-23T03:31:24.639Z,1.15
2022-11-23T03:33:52.671Z,1.33
2022-11-23T03:36:20.916Z,1.35
2022-11-23T03:38:48.939Z,1.48
2022-11-23T03:41:16.990Z,1.40
2022-11-23T03:43:44.936Z,1.30
2022-11-23T03:46:13.155Z,1.17
2022-11-23T03:48:42.521Z,1.08
2022-11-23T03:51:10.464Z,1.42
2022-11-23T03:53:38.385Z,1.48
2022-11-23T03:56:06.808Z,1.30
2022-11-23T03:58:34.761Z,1.50
2022-11-23T04:01:02.919Z,1.30
2022-11-23T04:03:30.949Z,0.98
2022-11-23T04:06:00.523Z,1.80
2022-11-23T04:08:28.454Z,1.25
2022-11-23T04:10:57.890Z,1.08
2022-11-23T04:13:26.650Z,1.35
2022-11-23T04:15:54.582Z,1.20
2022-11-23T04:18:22.500Z,1.05
2022-11-23T04:20:50.700Z,1.08
2022-11-23T04:23:20.046Z,1.50
2022-11-23T04:25:48.200Z,1.40
2022-11-23T04:28:16.263Z,1.20
2022-11-23T04:30:44.209Z,1.00
2022-11-23T04:33:12.448Z,1.13
2022-11-23T04:35:40.397Z,1.10
2022-11-23T04:38:08.673Z,1.23
2022-11-23T04:40:38.205Z,1.10
2022-11-23T04:43:06.507Z,1.13
2022-11-23T04:45:34.786Z,1.10
2022-11-23T04:48:02.654Z,1.30
2022-11-23T04:50:30.670Z,1.38
2022-11-23T04:52:58.601Z,1.25
2022-11-23T04:55:26.761Z,1.83
2022-11-23T04:57:56.046Z,1.42
2022-11-23T05:00:24.056Z,1.17
2022-11-23T05:02:51.954Z,1.20
2022-11-23T05:05:19.979Z,1.30
2022-11-23T05:07:47.944Z,1.48
2022-11-23T05:10:18.638Z,1.13
2022-11-23T05:12:46.592Z,1.10
2022-11-23T05:15:18.619Z,1.70
2022-11-23T05:17:46.605Z,1.20
2022-11-23T05:20:14.612Z,1.70
2022-11-23T05:22:42.632Z,1.17
2022-11-23T05:25:11.052Z,1.42
2022-11-23T05:27:39.189Z,1.50
2022-11-23T05:30:08.470Z,1.60
2022-11-23T05:32:37.831Z,1.30
2022-11-23T05:35:06.566Z,1.20
2022-11-23T05:37:34.773Z,1.27
2022-11-23T05:40:03.504Z,1.25
2022-11-23T05:42:31.477Z,1.70
2022-11-23T05:44:59.536Z,1.42
2022-11-23T05:47:27.641Z,1.52
2022-11-23T05:49:56.986Z,1.92
2022-11-23T05:52:26.281Z,1.40
2022-11-23T05:54:54.317Z,1.30
2022-11-23T05:57:23.102Z,1.20
2022-11-23T05:59:51.220Z,1.25
2022-11-23T06:02:19.149Z,1.63
2022-11-23T06:04:47.046Z,1.00
2022-11-23T06:07:16.434Z,1.13
2022-11-23T06:09:44.478Z,1.23
2022-11-23T06:12:12.709Z,1.10
2022-11-23T06:14:40.763Z,1.10
2022-11-23T06:17:08.958Z,1.50
2022-11-23T06:19:37.033Z,1.15
2022-11-23T06:22:05.030Z,1.35
2022-11-23T06:24:34.520Z,1.40
2022-11-23T06:27:02.615Z,1.50
2022-11-23T06:29:31.107Z,1.50
2022-11-23T06:31:59.602Z,1.65
2022-11-23T06:34:27.557Z,1.40
2022-11-23T06:36:55.554Z,1.50
2022-11-23T06:39:23.507Z,1.77
2022-11-23T06:41:57.060Z,1.92
2022-11-23T06:44:34.704Z,1.70
2022-11-23T06:47:02.808Z,1.20
2022-11-23T06:49:31.073Z,1.20
2022-11-23T06:51:59.099Z,1.60
2022-11-23T06:54:27.508Z,2.33
2022-11-23T06:56:56.895Z,2.05
2022-11-23T06:59:24.804Z,5.13
2022-11-23T07:01:53.049Z,1.67
2022-11-23T07:04:21.017Z,1.40
2022-11-23T07:06:49.057Z,1.67
2022-11-23T07:09:17.312Z,1.17
2022-11-23T07:11:45.421Z,1.60
2022-11-23T07:14:14.945Z,1.52
2022-11-23T07:16:43.070Z,1.50
2022-11-23T07:19:11.075Z,1.42
2022-11-23T07:21:39.122Z,1.65
2022-11-23T07:24:07.821Z,1.83
2022-11-23T07:26:35.951Z,2.60
2022-11-23T07:29:03.961Z,7.95
2022-11-23T07:31:33.322Z,9.30
2022-11-23T07:34:01.295Z,2.20
2022-11-23T07:36:29.389Z,2.75
2022-11-23T07:38:57.397Z,2.08
2022-11-23T07:41:27.341Z,2.63
2022-11-23T07:43:55.799Z,1.30
2022-11-23T07:46:23.827Z,2.45
2022-11-23T07:48:54.384Z,2.38
2022-11-23T07:51:22.483Z,3.20
2022-11-23T07:53:50.453Z,2.20
2022-11-23T07:56:18.483Z,1.50
2022-11-23T07:58:46.497Z,3.33
2022-11-23T08:01:18.010Z,2.97
2022-11-23T08:03:46.333Z,2.78
2022-11-23T08:06:17.159Z,3.28
2022-11-23T08:08:45.497Z,3.72
2022-11-23T08:11:17.159Z,3.80
2022-11-23T08:13:45.663Z,3.55
2022-11-23T08:16:13.664Z,3.40
2022-11-23T08:18:41.634Z,2.80
2022-11-23T08:21:09.777Z,3.42
2022-11-23T08:23:39.954Z,2.97
2022-11-23T08:26:13.353Z,2.95
2022-11-23T08:28:41.751Z,2.50
2022-11-23T08:31:11.187Z,2.50
2022-11-23T08:33:39.580Z,2.70
2022-11-23T08:36:09.146Z,3.30
2022-11-23T08:38:38.459Z,3.50
2022-11-23T08:41:07.452Z,3.08
2022-11-23T08:43:35.580Z,3.92
2022-11-23T08:46:09.271Z,3.30
2022-11-23T08:48:39.151Z,2.83
2022-11-23T08:51:07.621Z,2.40
2022-11-23T08:53:35.675Z,2.38
2022-11-23T08:56:06.584Z,2.60
2022-11-23T08:58:34.698Z,5.63
2022-11-23T09:01:02.667Z,5.50
2022-11-23T09:03:31.057Z,5.00
2022-11-23T09:06:01.804Z,3.85
2022-11-23T09:08:30.059Z,4.20
2022-11-23T09:11:01.139Z,2.30
2022-11-23T09:13:30.762Z,2.00
2022-11-23T09:15:59.853Z,1.80
2022-11-23T09:18:30.404Z,1.90
2022-11-23T09:20:58.848Z,1.73
2022-11-23T09:23:27.641Z,1.25
2022-11-23T09:25:55.702Z,1.70
2022-11-23T09:28:24.881Z,1.30
2022-11-23T09:30:54.628Z,1.60
2022-11-23T09:33:23.095Z,1.58
2022-11-23T09:35:58.235Z,1.67
2022-11-23T09:38:51.447Z,1.75
2022-11-23T09:41:28.434Z,1.90
2022-11-23T09:44:03.568Z,1.33
2022-11-23T09:46:40.551Z,1.45
2022-11-23T09:49:15.737Z,1.40
2022-11-23T09:51:45.463Z,1.80
2022-11-23T09:54:24.080Z,1.50
2022-11-23T09:57:00.045Z,1.63
2022-11-23T09:59:49.545Z,1.85
2022-11-23T10:02:23.085Z,1.92
2022-11-23T10:04:53.484Z,1.40
2022-11-23T10:07:36.111Z,1.73
2022-11-23T10:10:14.669Z,1.88
2022-11-23T10:12:53.612Z,1.60
2022-11-23T10:15:28.051Z,1.30
2022-11-23T10:18:21.125Z,1.50
2022-11-23T10:20:57.119Z,1.30
2022-11-23T10:23:48.096Z,1.63
2022-11-23T10:26:18.221Z,1.20
2022-11-23T10:28:47.902Z,1.50
2022-11-23T10:31:18.665Z,1.40
2022-11-23T10:33:57.315Z,1.20
2022-11-23T10:36:25.272Z,1.50
2022-11-23T10:38:58.840Z,1.38
2022-11-23T10:41:27.458Z,1.80
2022-11-23T10:44:03.635Z,1.58
2022-11-23T10:46:40.577Z,2.00
2022-11-23T10:49:19.024Z,1.63
2022-11-23T10:51:51.981Z,1.80
2022-11-23T10:54:24.516Z,1.83
2022-11-23T10:56:54.121Z,2.22
2022-11-23T10:59:37.213Z,2.03
2022-11-23T11:02:26.419Z,2.08
2022-11-23T11:05:40.270Z,2.00
2022-11-23T11:08:16.893Z,2.55
2022-11-23T11:10:49.991Z,2.08
2022-11-23T11:13:26.682Z,2.10
2022-11-23T11:15:56.433Z,2.20
2022-11-23T11:18:28.786Z,2.25
2022-11-23T11:21:04.816Z,2.22
2022-11-23T11:23:34.174Z,2.40
2022-11-23T11:26:19.953Z,2.42
2022-11-23T11:28:50.952Z,2.20
2022-11-23T11:31:38.393Z,2.05
2022-11-23T11:34:15.170Z,2.00
2022-11-23T11:36:49.191Z,2.40
2022-11-23T11:39:23.764Z,2.17
2022-11-23T11:41:53.613Z,1.88
2022-11-23T11:44:25.309Z,1.80
2022-11-23T11:46:59.020Z,2.13
2022-11-23T11:49:31.283Z,2.47
2022-11-23T11:52:09.319Z,2.00
2022-11-23T11:54:43.642Z,2.00
2022-11-23T11:57:20.624Z,2.92
2022-11-23T11:59:50.458Z,2.50
2022-11-23T12:02:25.266Z,2.60
2022-11-23T12:05:04.324Z,1.90
2022-11-23T12:07:37.498Z,2.08
2022-11-23T12:10:11.841Z,2.10
2022-11-23T12:12:41.016Z,1.80
2022-11-23T12:15:47.692Z,1.70
2022-11-23T12:18:25.214Z,2.05
2022-11-23T12:21:01.922Z,2.25
2022-11-23T12:23:46.179Z,1.98
2022-11-23T12:26:26.696Z,1.60
2022-11-23T12:29:27.155Z,1.77
2022-11-23T12:32:03.000Z,1.40
2022-11-23T12:34:55.309Z,1.42
2022-11-23T12:37:49.293Z,1.40
2022-11-23T12:40:38.528Z,1.20
2022-11-23T12:43:13.946Z,1.30
2022-11-23T12:45:54.459Z,1.20
2022-11-23T12:48:39.227Z,1.33
2022-11-23T12:51:22.301Z,1.58
2022-11-23T12:54:02.561Z,1.30
2022-11-23T12:56:52.831Z,0.90
2022-11-23T12:59:22.720Z,0.93
2022-11-23T13:01:54.998Z,1.10
2022-11-23T13:04:47.653Z,1.27
2022-11-23T13:07:40.042Z,1.13
2022-11-23T13:10:32.632Z,0.77
2022-11-23T13:13:21.930Z,1.15
2022-11-23T13:16:21.883Z,1.40
2022-11-23T13:19:09.911Z,0.80
2022-11-23T13:21:40.318Z,1.50
2022-11-23T13:24:27.634Z,0.77
2022-11-23T13:27:31.427Z,0.88
2022-11-23T13:30:09.539Z,1.38
2022-11-23T13:32:54.923Z,1.08
2022-11-23T13:36:12.664Z,0.90
2022-11-23T13:38:45.459Z,1.23
2022-11-23T13:42:01.848Z,0.93
2022-11-23T13:44:34.718Z,0.90
2022-11-23T13:47:19.071Z,1.10
2022-11-23T13:49:48.942Z,1.40
2022-11-23T13:52:32.249Z,0.75
2022-11-23T13:55:20.284Z,1.20
2022-11-23T13:58:29.460Z,1.02
2022-11-23T14:00:58.841Z,0.90
2022-11-23T14:03:55.844Z,1.00
2022-11-23T14:06:46.642Z,1.00
2022-11-23T14:09:24.485Z,1.15
2022-11-23T14:12:13.427Z,1.50
2022-11-23T14:14:59.102Z,1.20
2022-11-23T14:18:15.788Z,1.30
2022-11-23T14:21:06.276Z,1.35
2022-11-23T14:24:21.529Z,1.30
2022-11-23T14:27:17.726Z,1.30
2022-11-23T14:30:15.877Z,1.05
2022-11-23T14:33:03.487Z,1.25
2022-11-23T14:35:34.458Z,1.48
2022-11-23T14:38:40.279Z,1.50
2022-11-23T14:41:10.749Z,1.20
2022-11-23T14:43:42.833Z,1.30
2022-11-23T14:46:19.535Z,1.55
2022-11-23T14:48:51.680Z,2.35
2022-11-23T14:51:21.730Z,1.40
2022-11-23T14:53:52.926Z,7.13
2022-11-23T14:56:33.387Z,3.60
2022-11-23T14:59:05.696Z,8.45
2022-11-23T15:01:34.793Z,1.83
2022-11-23T15:04:10.521Z,3.95
2022-11-23T15:06:45.833Z,1.52
2022-11-23T15:09:24.248Z,1.80
2022-11-23T15:11:52.369Z,1.48
2022-11-23T15:14:22.258Z,1.20
2022-11-23T15:16:50.314Z,1.33
2022-11-23T15:19:19.810Z,1.48
2022-11-23T15:21:49.420Z,1.50
2022-11-23T15:24:26.757Z,1.45
2022-11-23T15:26:57.493Z,1.30
2022-11-23T15:29:30.734Z,1.17
2022-11-23T15:32:29.878Z,1.40
2022-11-23T15:34:47.462Z,1.00
2022-11-23T15:37:15.845Z,1.00
2022-11-23T15:39:45.549Z,1.10
2022-11-23T15:42:18.707Z,0.90
2022-11-23T15:44:51.134Z,0.90
2022-11-23T15:47:27.129Z,0.80
2022-11-23T15:50:00.494Z,0.95
2022-11-23T15:52:30.583Z,0.80
2022-11-23T15:57:54.294Z,0.82
2022-11-23T16:00:24.925Z,1.75
2022-11-23T16:02:53.658Z,0.90
2022-11-23T16:04:12.659Z,3.08
2022-11-23T16:05:25.012Z,0.73
2022-11-23T16:07:55.102Z,1.90
2022-11-23T16:10:26.385Z,1.50
2022-11-23T16:12:55.434Z,1.10
2022-11-23T16:15:45.171Z,0.98
2022-11-23T16:18:23.782Z,0.80
2022-11-23T16:20:55.462Z,0.85
2022-11-23T16:23:26.075Z,2.25
2022-11-23T16:25:58.605Z,0.75
2022-11-23T16:28:30.318Z,1.05
2022-11-23T16:30:58.817Z,0.93
2022-11-23T16:33:27.376Z,2.53
2022-11-23T16:35:55.430Z,0.93
2022-11-23T16:38:23.795Z,0.90
2022-11-23T16:40:51.852Z,1.27
2022-11-23T16:43:21.197Z,3.15
2022-11-23T16:45:52.462Z,0.93
2022-11-23T16:48:42.146Z,1.10
2022-11-23T16:51:14.376Z,1.05
2022-11-23T16:54:11.832Z,0.95
2022-11-23T16:56:31.856Z,0.85
2022-11-23T16:59:01.441Z,0.90
2022-11-23T17:01:31.494Z,0.80
2022-11-23T17:03:59.793Z,1.05
2022-11-23T17:06:27.812Z,1.10
2022-11-23T17:09:03.385Z,1.40
2022-11-23T17:11:38.433Z,1.00
2022-11-23T17:14:08.351Z,1.10
2022-11-23T17:16:36.513Z,1.25
2022-11-23T17:19:04.602Z,1.08
2022-11-23T17:21:32.617Z,1.00
2022-11-23T17:24:01.225Z,1.10
2022-11-23T17:26:36.108Z,1.30
2022-11-23T17:29:06.382Z,1.00
2022-11-23T17:31:35.741Z,0.93
2022-11-23T17:34:03.915Z,1.00
2022-11-23T17:36:32.548Z,0.90
2022-11-23T17:39:01.236Z,1.45
2022-11-23T17:41:29.212Z,1.20
2022-11-23T17:43:58.534Z,1.10
2022-11-23T17:46:27.498Z,1.25
2022-11-23T17:49:02.271Z,1.20
2022-11-23T17:51:34.408Z,1.20
2022-11-23T17:54:02.346Z,1.30
2022-11-23T17:56:32.471Z,1.27
2022-11-23T17:59:00.450Z,1.42
2022-11-23T18:01:29.241Z,2.22
2022-11-23T18:04:00.951Z,1.73
2022-11-23T18:06:30.083Z,1.30
2022-11-23T18:08:58.208Z,1.35
2022-11-23T18:11:28.455Z,1.90
2022-11-23T18:13:56.692Z,2.67
2022-11-23T18:16:24.819Z,1.92
2022-11-23T18:18:53.187Z,1.40
2022-11-23T18:21:22.655Z,1.90
2022-11-23T18:23:51.196Z,1.95
2022-11-23T18:26:21.163Z,1.80
2022-11-23T18:28:50.245Z,2.40
2022-11-23T18:31:21.011Z,2.13
2022-11-23T18:33:49.089Z,2.03
2022-11-23T18:36:17.453Z,2.13
2022-11-23T18:38:47.301Z,1.92
2022-11-23T18:41:16.944Z,2.00
2022-11-23T18:43:45.077Z,2.20
2022-11-23T18:46:19.029Z,1.90
2022-11-23T18:48:48.020Z,2.42
2022-11-23T18:51:16.733Z,2.33
2022-11-23T18:53:47.485Z,2.72
2022-11-23T18:56:15.668Z,2.45
2022-11-23T18:58:45.595Z,2.50
2022-11-23T19:01:15.475Z,2.28
2022-11-23T19:03:43.681Z,2.70
2022-11-23T19:06:19.666Z,2.30
2022-11-23T19:08:51.081Z,2.33
2022-11-23T19:11:21.297Z,2.33
2022-11-23T19:13:51.628Z,2.00
2022-11-23T19:16:21.427Z,2.28
2022-11-23T19:18:54.032Z,3.92
2022-11-23T19:21:23.881Z,1.90
2022-11-23T19:23:54.958Z,3.20
2022-11-23T19:26:23.243Z,1.98
2022-11-23T19:28:52.176Z,1.90
2022-11-23T19:31:22.500Z,1.90
2022-11-23T19:33:52.480Z,2.00
2022-11-23T19:36:22.210Z,2.10
2022-11-23T19:38:52.226Z,2.17
2022-11-23T19:41:23.033Z,1.95
2022-11-23T19:43:55.653Z,2.50
2022-11-23T19:46:24.373Z,2.10
2022-11-23T19:48:52.383Z,2.28
2022-11-23T19:51:21.526Z,3.42
2022-11-23T19:53:51.046Z,2.55
2022-11-23T19:56:23.425Z,3.08
2022-11-23T19:58:52.618Z,2.70
2022-11-23T20:01:24.555Z,3.22
2022-11-23T20:03:54.937Z,3.17
2022-11-23T20:06:26.185Z,3.53
2022-11-23T20:08:56.250Z,3.38
2022-11-23T20:11:27.298Z,3.40
2022-11-23T20:13:55.916Z,3.30
2022-11-23T20:16:25.462Z,3.38
2022-11-23T20:18:57.085Z,4.13
2022-11-23T20:21:25.300Z,2.95
2022-11-23T20:24:00.019Z,3.33
2022-11-23T20:26:34.197Z,3.03
2022-11-23T20:29:02.286Z,3.00
2022-11-23T20:31:32.002Z,2.80
2022-11-23T20:34:00.868Z,3.15
2022-11-23T20:36:30.176Z,2.40
2022-11-23T20:38:58.632Z,2.70
2022-11-23T20:41:28.812Z,3.15
2022-11-23T20:44:00.118Z,2.22
2022-11-23T20:49:18.883Z,2.40
2022-11-23T20:51:46.853Z,2.42
2022-11-23T20:54:14.784Z,2.85
2022-11-23T20:56:43.872Z,6.38
2022-11-23T20:59:14.266Z,9.77
2022-11-23T21:01:42.373Z,13.02
2022-11-23T21:04:10.425Z,11.60
2022-11-23T21:06:39.919Z,5.13
2022-11-23T21:09:09.361Z,3.75
2022-11-23T21:11:54.573Z,6.82
2022-11-23T21:14:27.802Z,2.75
2022-11-23T21:16:58.606Z,4.30
2022-11-23T21:19:28.663Z,3.72
2022-11-23T21:21:57.938Z,3.10
2022-11-23T21:24:26.714Z,2.90
2022-11-23T21:26:55.206Z,3.05
2022-11-23T21:29:24.607Z,2.50
2022-11-23T21:31:52.777Z,2.53
2022-11-23T21:34:24.469Z,3.50
2022-11-23T21:36:52.977Z,5.70
2022-11-23T21:39:21.206Z,5.50
2022-11-23T21:41:52.236Z,7.68
2022-11-23T21:44:20.516Z,5.75
2022-11-23T21:46:50.035Z,6.38
2022-11-23T21:49:21.295Z,6.20
2022-11-23T21:51:49.597Z,4.50
2022-11-23T21:54:17.810Z,2.67
2022-11-23T21:56:47.075Z,4.22
2022-11-23T21:59:15.145Z,3.22
2022-11-23T22:01:43.228Z,3.13
2022-11-23T22:04:15.666Z,5.63
2022-11-23T22:06:45.402Z,4.10
2022-11-23T22:09:13.911Z,4.60
2022-11-23T22:11:45.017Z,3.92
2022-11-23T22:14:15.110Z,2.70
2022-11-23T22:16:44.367Z,2.30
2022-11-23T22:19:15.589Z,2.63
2022-11-23T22:21:45.399Z,3.28
2022-11-23T22:24:14.801Z,3.47
2022-11-23T22:26:43.017Z,2.60
2022-11-23T22:29:11.727Z,3.33
2022-11-23T22:31:39.980Z,2.90
2022-11-23T22:34:11.248Z,3.55
2022-11-23T22:36:41.298Z,2.15
2022-11-23T22:39:09.926Z,2.25
2022-11-23T22:41:38.719Z,3.38
2022-11-23T22:44:08.326Z,2.78
2022-11-23T22:46:38.605Z,2.45
2022-11-23T22:49:07.273Z,3.08
2022-11-23T22:51:35.231Z,2.58
2022-11-23T22:54:04.798Z,2.50
2022-11-23T22:56:32.888Z,2.58
2022-11-23T22:59:00.957Z,3.20
2022-11-23T23:01:30.699Z,2.97
2022-11-23T23:04:00.454Z,2.42
2022-11-23T23:06:30.532Z,2.38
2022-11-23T23:08:59.975Z,2.97
2022-11-23T23:11:31.908Z,3.70
2022-11-23T23:14:00.511Z,3.45
2022-11-23T23:16:29.926Z,3.25
2022-11-23T23:18:59.162Z,4.03
2022-11-23T23:21:28.409Z,2.88
2022-11-23T23:23:59.088Z,2.72
2022-11-23T23:26:29.569Z,3.97
2022-11-23T23:28:59.000Z,2.80
2022-11-23T23:31:28.139Z,3.10
2022-11-23T23:33:56.886Z,2.83
2022-11-23T23:36:25.058Z,2.88
2022-11-23T23:38:53.313Z,3.03
2022-11-23T23:41:21.648Z,2.70
2022-11-23T23:43:51.001Z,3.38
2022-11-23T23:46:19.186Z,2.85
2022-11-23T23:48:47.424Z,2.20
2022-11-23T23:51:17.604Z,1.98
2022-11-23T23:53:46.294Z,2.17
2022-11-23T23:56:16.505Z,2.28
2022-11-23T23:58:44.844Z,1.85
